createdAt,value
2018-05-29T00:01:05.149Z,57.85
2018-05-29T00:03:32.689Z,57.68
2018-05-29T00:06:00.212Z,57.93
2018-05-29T00:08:27.757Z,57.86
2018-05-29T00:10:55.632Z,58.56
2018-05-29T00:13:23.212Z,58.65
2018-05-29T00:15:50.746Z,59.03
2018-05-29T00:18:18.265Z,59.10
2018-05-29T00:20:45.810Z,58.80
2018-05-29T00:23:13.371Z,58.82
2018-05-29T00:25:41.138Z,58.62
2018-05-29T00:28:08.685Z,58.82
2018-05-29T00:30:36.212Z,59.07
2018-05-29T00:33:03.772Z,59.59
2018-05-29T00:35:31.304Z,59.72
2018-05-29T00:37:59.192Z,59.02
2018-05-29T00:40:26.728Z,58.95
2018-05-29T00:42:54.260Z,58.87
2018-05-29T00:45:21.807Z,58.55
2018-05-29T00:47:49.331Z,58.52
2018-05-29T00:50:17.028Z,59.04
2018-05-29T00:52:44.549Z,59.17
2018-05-29T00:58:16.036Z,59.06
2018-05-29T01:00:43.917Z,59.02
2018-05-29T01:03:11.448Z,59.26
2018-05-29T01:05:38.976Z,59.05
2018-05-29T01:08:06.533Z,59.61
2018-05-29T01:10:34.072Z,59.05
2018-05-29T01:13:01.816Z,58.99
2018-05-29T01:15:29.337Z,58.65
2018-05-29T01:17:56.856Z,58.91
2018-05-29T01:20:24.401Z,59.26
2018-05-29T01:22:51.928Z,60.46
2018-05-29T01:25:19.712Z,60.57
2018-05-29T01:27:47.241Z,60.80
2018-05-29T01:30:14.766Z,61.13
2018-05-29T01:32:42.316Z,60.92
2018-05-29T01:35:09.841Z,61.18
2018-05-29T01:37:37.925Z,61.34
2018-05-29T01:40:05.453Z,61.04
2018-05-29T01:42:32.985Z,61.31
2018-05-29T01:45:00.536Z,61.09
2018-05-29T01:47:28.055Z,61.25
2018-05-29T01:49:55.820Z,61.17
2018-05-29T01:52:23.861Z,62.54
2018-05-29T01:54:51.396Z,62.36
2018-05-29T01:57:18.956Z,62.73
2018-05-29T01:59:46.486Z,62.28
2018-05-29T02:02:14.252Z,62.97
2018-05-29T02:04:41.773Z,62.78
2018-05-29T02:07:09.299Z,62.66
2018-05-29T02:09:36.857Z,62.98
2018-05-29T02:12:04.382Z,62.83
2018-05-29T02:14:32.141Z,62.57
2018-05-29T02:16:59.660Z,62.71
2018-05-29T02:19:27.268Z,62.66
2018-05-29T02:21:54.817Z,63.36
2018-05-29T02:24:22.345Z,63.13
2018-05-29T02:26:49.903Z,63.09
2018-05-29T02:29:17.444Z,63.31
2018-05-29T02:31:44.978Z,62.98
2018-05-29T02:34:12.529Z,62.73
2018-05-29T02:36:40.059Z,63.17
2018-05-29T02:39:07.626Z,62.25
2018-05-29T02:41:35.161Z,61.44
2018-05-29T02:44:02.695Z,61.74
2018-05-29T02:46:30.235Z,61.64
2018-05-29T02:48:57.761Z,61.96
2018-05-29T02:51:25.334Z,62.06
2018-05-29T02:53:52.863Z,61.65
2018-05-29T02:56:20.395Z,62.85
2018-05-29T02:58:47.953Z,62.42
2018-05-29T03:01:15.509Z,62.53
2018-05-29T03:03:43.234Z,62.58
2018-05-29T03:06:10.769Z,62.57
2018-05-29T03:08:38.300Z,62.49
2018-05-29T03:11:05.845Z,62.21
2018-05-29T03:13:33.372Z,62.89
2018-05-29T03:16:00.948Z,62.33
2018-05-29T03:18:28.469Z,61.90
2018-05-29T03:20:56.184Z,62.05
2018-05-29T03:23:23.726Z,61.90
2018-05-29T03:25:51.258Z,61.75
2018-05-29T03:28:18.815Z,61.52
2018-05-29T03:30:46.341Z,61.59
2018-05-29T03:33:13.866Z,61.39
2018-05-29T03:35:42.531Z,61.58
2018-05-29T03:38:10.064Z,61.49
2018-05-29T03:40:37.831Z,61.47
2018-05-29T03:43:05.360Z,61.55
2018-05-29T03:45:32.885Z,61.34
2018-05-29T03:48:00.433Z,60.96
2018-05-29T03:50:27.952Z,61.10
2018-05-29T03:52:55.526Z,60.80
2018-05-29T03:55:23.048Z,60.80
2018-05-29T03:57:50.576Z,60.34
2018-05-29T04:00:18.303Z,60.35
2018-05-29T04:02:45.854Z,60.13
2018-05-29T04:05:14.385Z,60.05
2018-05-29T04:07:41.948Z,59.90
2018-05-29T04:10:09.465Z,59.83
2018-05-29T04:12:36.984Z,60.15
2018-05-29T04:15:04.545Z,60.36
2018-05-29T04:17:32.077Z,60.33
2018-05-29T04:19:59.678Z,60.46
2018-05-29T04:22:31.720Z,60.50
2018-05-29T04:25:00.500Z,60.47
2018-05-29T04:27:28.072Z,60.79
2018-05-29T04:29:55.591Z,61.01
2018-05-29T04:32:23.117Z,61.00
2018-05-29T04:34:50.670Z,60.85
2018-05-29T04:37:18.200Z,61.58
2018-05-29T04:39:45.736Z,62.26
2018-05-29T04:42:13.336Z,61.64
2018-05-29T04:44:40.885Z,61.25
2018-05-29T04:47:08.440Z,60.96
2018-05-29T04:49:35.983Z,61.29
2018-05-29T04:52:03.517Z,62.00
2018-05-29T04:54:31.050Z,61.44
2018-05-29T04:56:58.605Z,61.29
2018-05-29T04:59:26.136Z,60.77
2018-05-29T05:01:53.663Z,60.78
2018-05-29T05:04:21.233Z,60.61
2018-05-29T05:06:48.808Z,60.85
2018-05-29T05:09:16.331Z,60.44
2018-05-29T05:11:43.880Z,59.98
2018-05-29T05:14:11.405Z,59.61
2018-05-29T05:16:38.955Z,59.21
2018-05-29T05:19:06.513Z,58.78
2018-05-29T05:21:34.053Z,58.11
2018-05-29T05:24:01.573Z,57.92
2018-05-29T05:26:29.123Z,58.08
2018-05-29T05:28:56.669Z,57.53
2018-05-29T05:31:24.217Z,56.90
2018-05-29T05:33:51.760Z,56.22
2018-05-29T05:36:19.285Z,55.56
2018-05-29T05:38:46.833Z,55.31
2018-05-29T05:41:14.362Z,55.56
2018-05-29T05:43:41.886Z,55.77
2018-05-29T05:46:09.491Z,55.89
2018-05-29T05:48:36.989Z,55.54
2018-05-29T05:51:04.537Z,55.44
2018-05-29T05:53:32.096Z,55.25
2018-05-29T05:55:59.684Z,54.78
2018-05-29T05:58:27.324Z,54.98
2018-05-29T06:00:54.809Z,55.34
2018-05-29T06:03:22.356Z,55.05
2018-05-29T06:05:49.910Z,54.46
2018-05-29T06:08:17.877Z,55.05
2018-05-29T06:10:45.451Z,54.83
2018-05-29T06:13:13.022Z,55.61
2018-05-29T06:15:40.612Z,54.89
2018-05-29T06:18:09.239Z,54.32
2018-05-29T06:20:36.756Z,53.86
2018-05-29T06:23:04.316Z,54.30
2018-05-29T06:25:31.849Z,54.77
2018-05-29T06:27:59.675Z,54.52
2018-05-29T06:30:27.211Z,53.81
2018-05-29T06:32:54.743Z,52.78
2018-05-29T06:35:22.301Z,52.30
2018-05-29T06:37:49.843Z,51.31
2018-05-29T06:40:17.560Z,50.71
2018-05-29T06:42:45.098Z,51.00
2018-05-29T06:45:12.685Z,49.53
2018-05-29T06:47:40.227Z,48.23
2018-05-29T06:50:08.325Z,46.66
2018-05-29T06:52:36.107Z,45.21
2018-05-29T06:55:03.615Z,44.75
2018-05-29T06:57:31.144Z,43.95
2018-05-29T06:59:58.692Z,44.98
2018-05-29T07:02:26.221Z,43.79
2018-05-29T07:04:54.129Z,42.64
2018-05-29T07:07:21.658Z,43.32
2018-05-29T07:09:50.135Z,41.48
2018-05-29T07:12:17.689Z,41.04
2018-05-29T07:14:45.216Z,41.18
2018-05-29T07:17:13.200Z,40.70
2018-05-29T07:19:40.724Z,41.49
2018-05-29T07:22:08.252Z,41.58
2018-05-29T07:24:36.837Z,43.09
2018-05-29T07:27:04.369Z,44.14
2018-05-29T07:29:33.065Z,43.93
2018-05-29T07:32:00.599Z,44.17
2018-05-29T07:34:28.163Z,43.50
2018-05-29T07:36:55.712Z,43.54
2018-05-29T07:39:23.249Z,42.99
2018-05-29T07:41:50.902Z,43.25
2018-05-29T07:44:18.437Z,43.43
2018-05-29T07:46:45.956Z,43.16
2018-05-29T07:49:13.513Z,43.58
2018-05-29T07:51:41.100Z,43.58
2018-05-29T07:54:08.653Z,43.68
2018-05-29T07:56:36.173Z,43.43
2018-05-29T07:59:03.704Z,43.43
2018-05-29T08:01:31.262Z,42.76
2018-05-29T08:03:59.740Z,42.57
2018-05-29T08:06:27.589Z,41.90
2018-05-29T08:08:55.121Z,41.72
2018-05-29T08:11:22.636Z,40.95
2018-05-29T08:13:50.181Z,40.54
2018-05-29T08:16:17.698Z,39.29
2018-05-29T08:18:45.243Z,39.50
2018-05-29T08:21:12.760Z,39.01
2018-05-29T08:23:40.285Z,38.96
2018-05-29T08:26:07.825Z,39.50
2018-05-29T08:28:35.339Z,40.39
2018-05-29T08:31:03.093Z,41.43
2018-05-29T08:33:30.605Z,40.98
2018-05-29T08:35:58.128Z,41.83
2018-05-29T08:38:25.682Z,41.79
2018-05-29T08:40:53.206Z,41.42
2018-05-29T08:43:21.255Z,41.78
2018-05-29T08:45:49.863Z,41.88
2018-05-29T08:48:17.375Z,42.17
2018-05-29T08:50:44.921Z,42.35
2018-05-29T08:53:12.440Z,43.63
2018-05-29T08:55:39.994Z,42.33
2018-05-29T08:58:07.532Z,42.50
2018-05-29T09:00:35.355Z,41.61
2018-05-29T09:03:02.915Z,41.71
2018-05-29T09:05:30.442Z,41.93
2018-05-29T09:07:58.716Z,42.10
2018-05-29T09:10:26.237Z,40.72
2018-05-29T09:12:53.761Z,40.44
2018-05-29T09:15:21.369Z,39.25
2018-05-29T09:17:48.862Z,38.53
2018-05-29T09:20:16.677Z,39.29
2018-05-29T09:22:44.213Z,39.33
2018-05-29T09:25:11.741Z,38.00
2018-05-29T09:27:39.290Z,36.94
2018-05-29T09:30:06.854Z,36.87
2018-05-29T09:32:34.560Z,37.18
2018-05-29T09:35:02.078Z,36.38
2018-05-29T09:37:29.625Z,36.82
2018-05-29T09:39:57.173Z,37.64
2018-05-29T09:42:24.690Z,37.86
2018-05-29T09:44:52.253Z,37.72
2018-05-29T09:47:19.836Z,37.30
2018-05-29T09:49:47.384Z,36.11
2018-05-29T09:52:14.947Z,34.40
2018-05-29T09:54:42.468Z,32.35
2018-05-29T09:57:10.561Z,29.60
2018-05-29T09:59:38.094Z,27.87
2018-05-29T10:02:05.627Z,29.37
2018-05-29T10:04:33.181Z,27.11
2018-05-29T10:07:00.767Z,27.13
2018-05-29T10:09:28.828Z,26.18
2018-05-29T10:11:56.352Z,24.46
2018-05-29T10:14:23.876Z,24.33
2018-05-29T10:16:51.429Z,25.62
2018-05-29T10:19:18.988Z,24.39
2018-05-29T10:21:46.540Z,22.74
2018-05-29T10:24:14.054Z,22.14
2018-05-29T10:26:41.568Z,20.69
2018-05-29T10:29:09.112Z,20.92
2018-05-29T10:31:36.659Z,22.46
2018-05-29T10:34:04.285Z,23.60
2018-05-29T10:36:31.813Z,25.35
2018-05-29T10:38:59.364Z,26.79
2018-05-29T10:41:26.914Z,28.00
2018-05-29T10:43:54.433Z,28.08
2018-05-29T10:46:22.301Z,28.25
2018-05-29T10:48:49.821Z,28.46
2018-05-29T10:51:17.344Z,28.65
2018-05-29T10:53:44.900Z,29.37
2018-05-29T10:56:12.429Z,30.36
2018-05-29T10:58:40.101Z,30.90
2018-05-29T11:01:07.619Z,30.74
2018-05-29T11:03:35.149Z,29.82
2018-05-29T11:06:02.700Z,31.29
2018-05-29T11:08:30.232Z,31.42
2018-05-29T11:10:58.403Z,31.02
2018-05-29T11:13:26.277Z,30.47
2018-05-29T11:15:53.793Z,31.34
2018-05-29T11:18:21.342Z,31.44
2018-05-29T11:20:48.867Z,32.45
2018-05-29T11:23:16.624Z,31.31
2018-05-29T11:25:44.149Z,30.44
2018-05-29T11:28:11.669Z,30.09
2018-05-29T11:30:39.213Z,31.82
2018-05-29T11:33:06.724Z,32.75
2018-05-29T11:35:34.271Z,33.98
2018-05-29T11:38:01.787Z,33.93
2018-05-29T11:40:29.434Z,34.22
2018-05-29T11:42:56.988Z,33.59
2018-05-29T11:45:24.530Z,33.04
2018-05-29T11:47:52.216Z,33.62
2018-05-29T11:50:19.737Z,33.47
2018-05-29T11:52:47.260Z,32.17
2018-05-29T11:55:14.808Z,34.00
2018-05-29T11:57:42.320Z,33.84
2018-05-29T12:00:10.008Z,34.03
2018-05-29T12:02:37.530Z,34.47
2018-05-29T12:05:05.160Z,34.16
2018-05-29T12:07:32.707Z,34.63
2018-05-29T12:10:00.773Z,34.26
2018-05-29T12:12:28.340Z,33.78
2018-05-29T12:14:55.862Z,33.63
2018-05-29T12:17:24.169Z,31.74
2018-05-29T12:19:51.756Z,30.67
2018-05-29T12:22:19.326Z,28.18
2018-05-29T12:24:46.841Z,26.55
2018-05-29T12:27:14.368Z,24.26
2018-05-29T12:29:41.941Z,23.04
2018-05-29T12:32:09.469Z,24.64
2018-05-29T12:34:37.000Z,27.29
2018-05-29T12:37:04.557Z,30.01
2018-05-29T12:39:32.071Z,32.75
2018-05-29T12:41:59.777Z,34.89
2018-05-29T12:44:27.323Z,36.83
2018-05-29T12:46:54.847Z,38.39
2018-05-29T12:49:22.396Z,41.86
2018-05-29T12:51:49.920Z,44.29
2018-05-29T12:54:17.474Z,47.93
2018-05-29T12:56:45.005Z,47.72
2018-05-29T12:59:12.546Z,49.26
2018-05-29T13:01:40.121Z,48.60
2018-05-29T13:04:07.645Z,49.71
2018-05-29T13:06:35.448Z,49.30
2018-05-29T13:09:02.992Z,50.01
2018-05-29T13:11:30.516Z,50.03
2018-05-29T13:13:58.065Z,49.93
2018-05-29T13:16:25.580Z,50.29
2018-05-29T13:18:53.129Z,50.85
2018-05-29T13:21:20.649Z,50.59
2018-05-29T13:23:48.179Z,52.51
2018-05-29T13:26:15.733Z,52.20
2018-05-29T13:28:43.303Z,52.70
2018-05-29T13:31:11.141Z,52.63
2018-05-29T13:33:38.665Z,54.55
2018-05-29T13:36:06.193Z,55.88
2018-05-29T13:38:33.732Z,55.93
2018-05-29T13:41:01.253Z,55.61
2018-05-29T13:43:28.937Z,55.99
2018-05-29T13:45:56.464Z,56.40
2018-05-29T13:48:24.011Z,57.56
2018-05-29T13:50:51.560Z,56.65
2018-05-29T13:53:19.087Z,57.13
2018-05-29T13:55:46.660Z,59.51
2018-05-29T13:58:14.221Z,59.44
2018-05-29T14:00:41.747Z,58.90
2018-05-29T14:03:09.317Z,58.04
2018-05-29T14:05:36.831Z,58.12
2018-05-29T14:08:04.553Z,56.56
2018-05-29T14:10:32.084Z,56.19
2018-05-29T14:12:59.613Z,56.46
2018-05-29T14:15:27.148Z,55.63
2018-05-29T14:17:54.733Z,56.69
2018-05-29T14:20:23.369Z,55.53
2018-05-29T14:22:51.234Z,55.24
2018-05-29T14:25:19.221Z,55.88
2018-05-29T14:27:46.917Z,55.46
2018-05-29T14:30:14.629Z,55.04
2018-05-29T14:32:42.647Z,55.94
2018-05-29T14:35:10.931Z,56.62
2018-05-29T14:37:38.584Z,56.23
2018-05-29T14:40:06.152Z,57.03
2018-05-29T14:42:33.962Z,59.63
2018-05-29T14:45:01.808Z,59.77
2018-05-29T14:47:30.290Z,59.98
2018-05-29T14:49:57.870Z,58.63
2018-05-29T14:52:26.849Z,57.75
2018-05-29T14:54:54.524Z,58.24
2018-05-29T14:57:22.805Z,58.81
2018-05-29T14:59:50.348Z,58.57
2018-05-29T15:02:18.227Z,61.08
2018-05-29T15:04:46.092Z,60.79
2018-05-29T15:07:13.700Z,61.17
2018-05-29T15:09:42.362Z,61.87
2018-05-29T15:12:10.204Z,60.59
2018-05-29T15:14:38.010Z,59.31
2018-05-29T15:17:05.732Z,57.42
2018-05-29T15:19:33.303Z,56.72
2018-05-29T15:22:00.954Z,56.78
2018-05-29T15:24:28.620Z,55.92
2018-05-29T15:26:56.481Z,56.67
2018-05-29T15:29:24.348Z,57.50
2018-05-29T15:31:52.523Z,56.88
2018-05-29T15:34:20.119Z,56.84
2018-05-29T15:36:48.049Z,56.59
2018-05-29T15:39:15.604Z,54.30
2018-05-29T15:41:44.293Z,56.13
2018-05-29T15:44:11.882Z,58.65
2018-05-29T15:46:39.520Z,60.38
2018-05-29T15:49:07.044Z,60.91
2018-05-29T15:51:34.572Z,59.34
2018-05-29T15:54:02.152Z,58.75
2018-05-29T15:56:29.857Z,58.38
2018-05-29T15:58:57.807Z,57.65
2018-05-29T16:01:25.404Z,56.25
2018-05-29T16:03:53.058Z,54.02
2018-05-29T16:06:20.620Z,58.17
2018-05-29T16:08:49.102Z,58.81
2018-05-29T16:11:16.856Z,56.16
2018-05-29T16:13:44.417Z,56.06
2018-05-29T16:16:12.165Z,56.18
2018-05-29T16:18:39.742Z,55.98
2018-05-29T16:21:07.396Z,54.11
2018-05-29T16:23:34.988Z,56.62
2018-05-29T16:26:02.720Z,56.25
2018-05-29T16:28:30.466Z,55.52
2018-05-29T16:30:58.250Z,55.07
2018-05-29T16:33:26.115Z,54.20
2018-05-29T16:35:54.085Z,54.32
2018-05-29T16:38:21.850Z,53.62
2018-05-29T16:40:49.478Z,53.86
2018-05-29T16:43:17.173Z,53.47
2018-05-29T16:45:44.728Z,50.97
2018-05-29T16:48:12.702Z,53.16
2018-05-29T16:50:40.365Z,54.81
2018-05-29T16:53:08.234Z,55.04
2018-05-29T16:55:35.956Z,56.01
2018-05-29T16:58:03.639Z,56.40
2018-05-29T17:00:31.265Z,55.55
2018-05-29T17:02:59.003Z,54.14
2018-05-29T17:05:26.556Z,53.66
2018-05-29T17:07:54.258Z,53.41
2018-05-29T17:10:21.793Z,52.96
2018-05-29T17:12:49.602Z,53.42
2018-05-29T17:15:17.222Z,53.93
2018-05-29T17:17:44.841Z,54.70
2018-05-29T17:20:12.459Z,53.51
2018-05-29T17:22:40.008Z,53.00
2018-05-29T17:25:07.834Z,52.86
2018-05-29T17:27:35.596Z,53.89
2018-05-29T17:30:03.142Z,53.48
2018-05-29T17:32:30.821Z,52.78
2018-05-29T17:34:58.684Z,52.63
2018-05-29T17:37:26.449Z,52.34
2018-05-29T17:39:54.000Z,53.04
2018-05-29T17:42:22.083Z,52.74
2018-05-29T17:44:49.706Z,53.54
2018-05-29T17:47:17.244Z,52.92
2018-05-29T17:49:44.954Z,53.08
2018-05-29T17:52:12.478Z,52.72
2018-05-29T17:54:40.069Z,52.65
2018-05-29T17:57:07.923Z,53.06
2018-05-29T17:59:35.670Z,53.18
2018-05-29T18:02:03.533Z,53.85
2018-05-29T18:04:31.056Z,53.64
2018-05-29T18:06:58.669Z,53.54
2018-05-29T18:09:26.360Z,54.33
2018-05-29T18:11:53.897Z,54.42
2018-05-29T18:14:21.688Z,54.20
2018-05-29T18:16:49.311Z,55.18
2018-05-29T18:19:17.316Z,56.54
2018-05-29T18:21:44.909Z,56.38
2018-05-29T18:24:13.074Z,56.67
2018-05-29T18:26:41.216Z,57.97
2018-05-29T18:29:08.760Z,57.83
2018-05-29T18:31:36.321Z,57.63
2018-05-29T18:34:04.924Z,57.86
2018-05-29T18:36:32.502Z,58.07
2018-05-29T18:39:00.114Z,57.60
2018-05-29T18:41:27.661Z,57.98
2018-05-29T18:43:55.189Z,58.82
2018-05-29T18:46:22.900Z,58.82
2018-05-29T18:48:50.491Z,58.50
2018-05-29T18:51:18.116Z,57.93
2018-05-29T18:53:45.808Z,59.02
2018-05-29T18:56:13.572Z,59.05
2018-05-29T18:58:41.117Z,59.42
2018-05-29T19:01:08.717Z,60.04
2018-05-29T19:03:36.693Z,60.22
2018-05-29T19:06:04.422Z,60.38
2018-05-29T19:08:32.203Z,60.39
2018-05-29T19:11:00.166Z,60.86
2018-05-29T19:13:27.925Z,61.29
2018-05-29T19:15:55.534Z,62.44
2018-05-29T19:18:23.316Z,62.40
2018-05-29T19:20:50.854Z,62.52
2018-05-29T19:23:18.589Z,62.83
2018-05-29T19:25:46.639Z,63.60
2018-05-29T19:28:14.914Z,63.93
2018-05-29T19:30:42.534Z,64.27
2018-05-29T19:33:10.341Z,64.36
2018-05-29T19:35:38.109Z,64.43
2018-05-29T19:38:05.974Z,64.36
2018-05-29T19:40:34.043Z,64.41
2018-05-29T19:43:01.804Z,64.46
2018-05-29T19:45:29.572Z,64.80
2018-05-29T19:47:57.440Z,65.09
2018-05-29T19:50:25.203Z,65.57
2018-05-29T19:52:52.968Z,65.18
2018-05-29T19:55:20.629Z,65.29
2018-05-29T19:57:48.497Z,65.56
2018-05-29T20:00:16.464Z,66.04
2018-05-29T20:02:44.256Z,66.32
2018-05-29T20:05:12.352Z,66.34
2018-05-29T20:07:40.679Z,66.51
2018-05-29T20:10:08.548Z,67.25
2018-05-29T20:12:36.512Z,67.22
2018-05-29T20:15:04.380Z,67.21
2018-05-29T20:17:33.389Z,67.69
2018-05-29T20:20:01.373Z,68.24
2018-05-29T20:22:29.311Z,68.12
2018-05-29T20:24:57.178Z,67.75
2018-05-29T20:27:25.430Z,67.57
2018-05-29T20:29:53.629Z,67.45
2018-05-29T20:32:21.497Z,68.14
2018-05-29T20:34:49.807Z,67.87
2018-05-29T20:37:17.744Z,67.78
2018-05-29T20:39:45.610Z,68.09
2018-05-29T20:42:13.882Z,68.18
2018-05-29T20:44:41.749Z,68.35
2018-05-29T20:47:09.616Z,68.38
2018-05-29T20:49:37.627Z,68.81
2018-05-29T20:52:05.255Z,69.07
2018-05-29T20:54:33.102Z,69.32
2018-05-29T20:57:00.880Z,69.11
2018-05-29T20:59:28.539Z,69.22
2018-05-29T21:01:56.306Z,69.15
2018-05-29T21:04:23.926Z,69.44
2018-05-29T21:06:51.628Z,69.12
2018-05-29T21:09:19.495Z,68.60
2018-05-29T21:11:47.101Z,67.63
2018-05-29T21:14:14.919Z,67.78
2018-05-29T21:16:42.456Z,68.30
2018-05-29T21:19:10.332Z,68.82
2018-05-29T21:21:37.970Z,68.48
2018-05-29T21:24:05.575Z,68.99
2018-05-29T21:26:33.331Z,69.52
2018-05-29T21:29:00.916Z,69.16
2018-05-29T21:31:28.877Z,69.89
2018-05-29T21:33:56.417Z,70.46
2018-05-29T21:36:23.953Z,69.33
2018-05-29T21:38:51.512Z,69.20
2018-05-29T21:41:19.042Z,69.11
2018-05-29T21:43:47.274Z,69.69
2018-05-29T21:46:14.889Z,69.40
2018-05-29T21:48:42.422Z,69.81
2018-05-29T21:51:09.988Z,69.74
2018-05-29T21:53:37.546Z,69.40
2018-05-29T21:56:05.260Z,69.63
2018-05-29T21:58:32.786Z,69.55
2018-05-29T22:01:00.336Z,70.27
2018-05-29T22:03:28.400Z,70.31
2018-05-29T22:05:55.936Z,70.70
2018-05-29T22:08:23.671Z,70.86
2018-05-29T22:10:51.197Z,70.22
2018-05-29T22:13:18.726Z,70.18
2018-05-29T22:15:46.957Z,69.64
2018-05-29T22:18:14.524Z,69.81
2018-05-29T22:20:42.089Z,70.08
2018-05-29T22:23:09.642Z,69.90
2018-05-29T22:25:37.384Z,70.29
2018-05-29T22:28:04.972Z,70.36
2018-05-29T22:30:32.964Z,70.55
2018-05-29T22:33:00.692Z,70.58
2018-05-29T22:35:28.329Z,70.62
2018-05-29T22:37:55.865Z,70.24
2018-05-29T22:40:23.417Z,69.99
2018-05-29T22:42:50.984Z,70.16
2018-05-29T22:45:19.943Z,70.05
2018-05-29T22:47:47.471Z,70.04
2018-05-29T22:50:15.000Z,70.58
2018-05-29T22:52:42.581Z,70.34
2018-05-29T22:55:10.136Z,70.55
2018-05-29T22:57:37.825Z,70.44
2018-05-29T23:00:05.362Z,70.55
2018-05-29T23:02:32.893Z,70.63
2018-05-29T23:05:00.831Z,70.58
2018-05-29T23:07:28.381Z,71.15
2018-05-29T23:09:55.948Z,71.54
2018-05-29T23:12:23.501Z,71.88
2018-05-29T23:14:51.580Z,71.50
2018-05-29T23:17:19.149Z,71.22
2018-05-29T23:19:46.672Z,70.87
2018-05-29T23:22:14.952Z,70.11
2018-05-29T23:24:42.502Z,70.42
2018-05-29T23:27:10.036Z,70.79
2018-05-29T23:29:37.593Z,71.43
2018-05-29T23:32:05.114Z,71.57
2018-05-29T23:34:33.181Z,71.44
2018-05-29T23:37:00.702Z,72.05
2018-05-29T23:39:28.232Z,71.78
2018-05-29T23:41:55.857Z,71.46
2018-05-29T23:44:23.396Z,70.85
2018-05-29T23:46:52.000Z,70.50
2018-05-29T23:49:19.529Z,70.32
2018-05-29T23:51:47.069Z,70.45
2018-05-29T23:54:14.633Z,70.74
2018-05-29T23:56:42.169Z,70.50
2018-05-29T23:59:09.979Z,71.09
